sensor_id;sensor_type;location;lat;lon;timestamp;P1;durP1;ratioP1;P2;durP2;ratioP2
30862;SDS011;17573;55.922;37.540;2022-08-03T00:01:27;27.33;;;13.23;;
30862;SDS011;17573;55.922;37.540;2022-08-03T00:04:07;26.83;;;12.05;;
30862;SDS011;17573;55.922;37.540;2022-08-03T00:06:53;23.50;;;15.00;;
30862;SDS011;17573;55.922;37.540;2022-08-03T00:09:32;23.65;;;12.40;;
30862;SDS011;17573;55.922;37.540;2022-08-03T00:12:18;23.98;;;13.70;;
30862;SDS011;17573;55.922;37.540;2022-08-03T00:14:57;26.05;;;12.77;;
30862;SDS011;17573;55.922;37.540;2022-08-03T00:17:43;26.00;;;12.48;;
30862;SDS011;17573;55.922;37.540;2022-08-03T00:20:23;23.73;;;12.48;;
30862;SDS011;17573;55.922;37.540;2022-08-03T00:23:09;39.97;;;12.98;;
30862;SDS011;17573;55.922;37.540;2022-08-03T00:25:48;17.08;;;12.25;;
30862;SDS011;17573;55.922;37.540;2022-08-03T00:28:34;25.70;;;14.45;;
30862;SDS011;17573;55.922;37.540;2022-08-03T00:31:13;31.80;;;12.55;;
30862;SDS011;17573;55.922;37.540;2022-08-03T00:33:59;28.40;;;11.85;;
30862;SDS011;17573;55.922;37.540;2022-08-03T00:36:38;27.13;;;15.05;;
30862;SDS011;17573;55.922;37.540;2022-08-03T00:39:24;26.92;;;14.00;;
30862;SDS011;17573;55.922;37.540;2022-08-03T00:42:03;23.95;;;13.07;;
30862;SDS011;17573;55.922;37.540;2022-08-03T00:44:49;18.85;;;12.57;;
30862;SDS011;17573;55.922;37.540;2022-08-03T00:47:28;25.73;;;12.30;;
30862;SDS011;17573;55.922;37.540;2022-08-03T00:50:15;28.70;;;13.05;;
30862;SDS011;17573;55.922;37.540;2022-08-03T00:52:56;18.23;;;11.90;;
30862;SDS011;17573;55.922;37.540;2022-08-03T00:55:43;23.35;;;11.77;;
30862;SDS011;17573;55.922;37.540;2022-08-03T00:58:22;33.15;;;12.77;;
30862;SDS011;17573;55.922;37.540;2022-08-03T01:01:08;20.75;;;11.63;;
30862;SDS011;17573;55.922;37.540;2022-08-03T01:03:47;15.38;;;10.73;;
30862;SDS011;17573;55.922;37.540;2022-08-03T01:06:45;26.75;;;11.85;;
30862;SDS011;17573;55.922;37.540;2022-08-03T01:12:58;22.42;;;11.38;;
30862;SDS011;17573;55.922;37.540;2022-08-03T01:15:58;28.25;;;13.23;;
30862;SDS011;17573;55.922;37.540;2022-08-03T01:20:16;46.33;;;14.07;;
30862;SDS011;17573;55.922;37.540;2022-08-03T01:25:33;38.50;;;11.70;;
30862;SDS011;17573;55.922;37.540;2022-08-03T01:31:18;21.65;;;11.27;;
30862;SDS011;17573;55.922;37.540;2022-08-03T01:34:00;32.55;;;12.93;;
30862;SDS011;17573;55.922;37.540;2022-08-03T01:36:51;39.83;;;13.52;;
30862;SDS011;17573;55.922;37.540;2022-08-03T01:39:31;37.67;;;13.25;;
30862;SDS011;17573;55.922;37.540;2022-08-03T01:42:17;31.80;;;13.95;;
30862;SDS011;17573;55.922;37.540;2022-08-03T01:44:57;27.48;;;12.65;;
30862;SDS011;17573;55.922;37.540;2022-08-03T01:47:44;26.15;;;13.13;;
30862;SDS011;17573;55.922;37.540;2022-08-03T01:50:26;24.40;;;12.07;;
30862;SDS011;17573;55.922;37.540;2022-08-03T01:53:13;20.27;;;12.32;;
30862;SDS011;17573;55.922;37.540;2022-08-03T01:55:54;28.80;;;12.68;;
30862;SDS011;17573;55.922;37.540;2022-08-03T01:58:40;31.25;;;12.38;;
30862;SDS011;17573;55.922;37.540;2022-08-03T02:01:20;30.08;;;13.25;;
30862;SDS011;17573;55.922;37.540;2022-08-03T02:04:07;21.17;;;12.18;;
30862;SDS011;17573;55.922;37.540;2022-08-03T02:06:47;18.35;;;10.68;;
30862;SDS011;17573;55.922;37.540;2022-08-03T02:09:35;28.35;;;11.95;;
30862;SDS011;17573;55.922;37.540;2022-08-03T02:12:16;18.05;;;12.30;;
30862;SDS011;17573;55.922;37.540;2022-08-03T02:15:23;30.02;;;12.50;;
30862;SDS011;17573;55.922;37.540;2022-08-03T02:18:04;27.05;;;11.60;;
30862;SDS011;17573;55.922;37.540;2022-08-03T02:20:50;24.98;;;12.60;;
30862;SDS011;17573;55.922;37.540;2022-08-03T02:23:30;21.52;;;11.45;;
30862;SDS011;17573;55.922;37.540;2022-08-03T02:26:16;27.88;;;13.40;;
30862;SDS011;17573;55.922;37.540;2022-08-03T02:29:02;21.10;;;11.95;;
30862;SDS011;17573;55.922;37.540;2022-08-03T02:31:51;27.10;;;12.13;;
30862;SDS011;17573;55.922;37.540;2022-08-03T02:34:32;26.83;;;11.57;;
30862;SDS011;17573;55.922;37.540;2022-08-03T02:37:19;24.60;;;11.35;;
30862;SDS011;17573;55.922;37.540;2022-08-03T02:40:01;19.30;;;11.15;;
30862;SDS011;17573;55.922;37.540;2022-08-03T02:42:50;22.00;;;12.43;;
30862;SDS011;17573;55.922;37.540;2022-08-03T02:45:31;24.10;;;10.80;;
30862;SDS011;17573;55.922;37.540;2022-08-03T02:48:22;23.73;;;12.07;;
30862;SDS011;17573;55.922;37.540;2022-08-03T02:51:03;29.00;;;12.30;;
30862;SDS011;17573;55.922;37.540;2022-08-03T02:53:50;21.35;;;12.25;;
30862;SDS011;17573;55.922;37.540;2022-08-03T02:56:29;17.80;;;11.57;;
30862;SDS011;17573;55.922;37.540;2022-08-03T02:59:15;25.35;;;11.45;;
30862;SDS011;17573;55.922;37.540;2022-08-03T03:01:55;29.25;;;13.02;;
30862;SDS011;17573;55.922;37.540;2022-08-03T03:04:41;20.05;;;11.82;;
30862;SDS011;17573;55.922;37.540;2022-08-03T03:07:21;15.75;;;10.85;;
30862;SDS011;17573;55.922;37.540;2022-08-03T03:10:07;20.27;;;11.10;;
30862;SDS011;17573;55.922;37.540;2022-08-03T03:12:47;17.30;;;10.98;;
30862;SDS011;17573;55.922;37.540;2022-08-03T03:15:35;25.63;;;12.07;;
30862;SDS011;17573;55.922;37.540;2022-08-03T03:18:16;16.92;;;11.07;;
30862;SDS011;17573;55.922;37.540;2022-08-03T03:21:03;18.95;;;11.10;;
30862;SDS011;17573;55.922;37.540;2022-08-03T03:23:42;19.45;;;10.32;;
30862;SDS011;17573;55.922;37.540;2022-08-03T03:26:29;16.92;;;11.32;;
30862;SDS011;17573;55.922;37.540;2022-08-03T03:29:08;13.73;;;11.30;;
30862;SDS011;17573;55.922;37.540;2022-08-03T03:31:54;21.08;;;10.32;;
30862;SDS011;17573;55.922;37.540;2022-08-03T03:34:34;15.00;;;10.20;;
30862;SDS011;17573;55.922;37.540;2022-08-03T03:37:21;21.33;;;11.00;;
30862;SDS011;17573;55.922;37.540;2022-08-03T03:40:00;22.10;;;11.77;;
30862;SDS011;17573;55.922;37.540;2022-08-03T03:42:46;29.00;;;11.82;;
30862;SDS011;17573;55.922;37.540;2022-08-03T03:45:25;15.02;;;9.30;;
30862;SDS011;17573;55.922;37.540;2022-08-03T03:48:11;21.95;;;10.38;;
30862;SDS011;17573;55.922;37.540;2022-08-03T03:50:50;18.58;;;9.75;;
30862;SDS011;17573;55.922;37.540;2022-08-03T03:53:36;15.95;;;10.70;;
30862;SDS011;17573;55.922;37.540;2022-08-03T03:56:15;18.25;;;10.52;;
30862;SDS011;17573;55.922;37.540;2022-08-03T03:59:02;17.98;;;10.77;;
30862;SDS011;17573;55.922;37.540;2022-08-03T04:01:41;18.70;;;10.52;;
30862;SDS011;17573;55.922;37.540;2022-08-03T04:04:27;17.23;;;10.88;;
30862;SDS011;17573;55.922;37.540;2022-08-03T04:07:26;12.45;;;10.00;;
30862;SDS011;17573;55.922;37.540;2022-08-03T04:10:29;20.15;;;10.50;;
30862;SDS011;17573;55.922;37.540;2022-08-03T04:13:33;24.67;;;12.20;;
30862;SDS011;17573;55.922;37.540;2022-08-03T04:16:23;23.20;;;10.88;;
30862;SDS011;17573;55.922;37.540;2022-08-03T04:19:06;20.30;;;11.32;;
30862;SDS011;17573;55.922;37.540;2022-08-03T04:21:55;22.48;;;11.82;;
30862;SDS011;17573;55.922;37.540;2022-08-03T04:24:39;23.05;;;11.57;;
30862;SDS011;17573;55.922;37.540;2022-08-03T04:27:27;26.23;;;12.05;;
30862;SDS011;17573;55.922;37.540;2022-08-03T04:30:09;26.80;;;10.48;;
30862;SDS011;17573;55.922;37.540;2022-08-03T04:32:56;26.25;;;11.77;;
30862;SDS011;17573;55.922;37.540;2022-08-03T04:35:36;25.90;;;11.40;;
30862;SDS011;17573;55.922;37.540;2022-08-03T04:38:22;29.73;;;12.23;;
30862;SDS011;17573;55.922;37.540;2022-08-03T04:41:02;29.88;;;11.75;;
30862;SDS011;17573;55.922;37.540;2022-08-03T04:43:49;19.83;;;11.88;;
30862;SDS011;17573;55.922;37.540;2022-08-03T04:46:38;22.05;;;11.40;;
30862;SDS011;17573;55.922;37.540;2022-08-03T04:49:24;24.10;;;12.00;;
30862;SDS011;17573;55.922;37.540;2022-08-03T04:52:04;21.42;;;10.70;;
30862;SDS011;17573;55.922;37.540;2022-08-03T04:54:51;16.02;;;10.95;;
30862;SDS011;17573;55.922;37.540;2022-08-03T04:57:30;18.00;;;10.68;;
30862;SDS011;17573;55.922;37.540;2022-08-03T05:00:16;25.27;;;11.02;;
30862;SDS011;17573;55.922;37.540;2022-08-03T05:02:55;21.25;;;11.50;;
30862;SDS011;17573;55.922;37.540;2022-08-03T05:05:41;20.08;;;11.35;;
30862;SDS011;17573;55.922;37.540;2022-08-03T05:08:20;19.83;;;11.13;;
30862;SDS011;17573;55.922;37.540;2022-08-03T05:11:06;15.90;;;10.60;;
30862;SDS011;17573;55.922;37.540;2022-08-03T05:13:46;23.27;;;11.07;;
30862;SDS011;17573;55.922;37.540;2022-08-03T05:16:32;24.67;;;10.95;;
30862;SDS011;17573;55.922;37.540;2022-08-03T05:19:11;28.10;;;12.25;;
30862;SDS011;17573;55.922;37.540;2022-08-03T05:21:57;28.63;;;11.18;;
30862;SDS011;17573;55.922;37.540;2022-08-03T05:24:36;24.25;;;10.95;;
30862;SDS011;17573;55.922;37.540;2022-08-03T05:27:22;27.70;;;11.52;;
30862;SDS011;17573;55.922;37.540;2022-08-03T05:30:01;18.95;;;11.77;;
30862;SDS011;17573;55.922;37.540;2022-08-03T05:32:47;18.83;;;10.38;;
30862;SDS011;17573;55.922;37.540;2022-08-03T05:35:26;27.55;;;12.20;;
30862;SDS011;17573;55.922;37.540;2022-08-03T05:40:56;16.33;;;9.13;;
30862;SDS011;17573;55.922;37.540;2022-08-03T05:43:41;22.35;;;9.43;;
30862;SDS011;17573;55.922;37.540;2022-08-03T05:46:21;16.65;;;8.60;;
30862;SDS011;17573;55.922;37.540;2022-08-03T05:49:07;12.52;;;7.57;;
30862;SDS011;17573;55.922;37.540;2022-08-03T05:51:46;29.02;;;8.07;;
30862;SDS011;17573;55.922;37.540;2022-08-03T05:54:32;21.13;;;7.90;;
30862;SDS011;17573;55.922;37.540;2022-08-03T05:57:11;17.48;;;7.18;;
30862;SDS011;17573;55.922;37.540;2022-08-03T05:59:57;16.80;;;7.63;;
30862;SDS011;17573;55.922;37.540;2022-08-03T06:02:43;12.32;;;6.72;;
30862;SDS011;17573;55.922;37.540;2022-08-03T06:05:31;19.17;;;6.65;;
30862;SDS011;17573;55.922;37.540;2022-08-03T06:08:13;20.60;;;7.30;;
30862;SDS011;17573;55.922;37.540;2022-08-03T06:10:59;14.73;;;6.28;;
30862;SDS011;17573;55.922;37.540;2022-08-03T06:13:39;10.60;;;5.63;;
30862;SDS011;17573;55.922;37.540;2022-08-03T06:16:25;13.25;;;6.60;;
30862;SDS011;17573;55.922;37.540;2022-08-03T06:19:04;12.25;;;5.53;;
30862;SDS011;17573;55.922;37.540;2022-08-03T06:21:50;14.52;;;5.35;;
30862;SDS011;17573;55.922;37.540;2022-08-03T06:24:29;13.63;;;4.93;;
30862;SDS011;17573;55.922;37.540;2022-08-03T06:27:15;14.02;;;4.80;;
30862;SDS011;17573;55.922;37.540;2022-08-03T06:29:54;12.68;;;4.68;;
30862;SDS011;17573;55.922;37.540;2022-08-03T06:32:40;18.08;;;5.88;;
30862;SDS011;17573;55.922;37.540;2022-08-03T06:35:19;10.50;;;5.15;;
30862;SDS011;17573;55.922;37.540;2022-08-03T06:38:05;11.35;;;4.90;;
30862;SDS011;17573;55.922;37.540;2022-08-03T06:40:45;26.27;;;4.65;;
30862;SDS011;17573;55.922;37.540;2022-08-03T06:43:30;9.88;;;4.38;;
30862;SDS011;17573;55.922;37.540;2022-08-03T06:46:12;9.57;;;3.88;;
30862;SDS011;17573;55.922;37.540;2022-08-03T06:48:58;12.48;;;4.45;;
30862;SDS011;17573;55.922;37.540;2022-08-03T06:51:37;24.17;;;5.13;;
30862;SDS011;17573;55.922;37.540;2022-08-03T06:54:23;12.60;;;4.22;;
30862;SDS011;17573;55.922;37.540;2022-08-03T06:57:03;10.52;;;4.80;;
30862;SDS011;17573;55.922;37.540;2022-08-03T06:59:49;9.05;;;4.13;;
30862;SDS011;17573;55.922;37.540;2022-08-03T07:02:29;16.98;;;5.18;;
30862;SDS011;17573;55.922;37.540;2022-08-03T07:05:14;16.05;;;4.65;;
30862;SDS011;17573;55.922;37.540;2022-08-03T07:07:54;12.18;;;4.97;;
30862;SDS011;17573;55.922;37.540;2022-08-03T07:10:40;13.45;;;5.20;;
30862;SDS011;17573;55.922;37.540;2022-08-03T07:13:19;18.20;;;3.70;;
30862;SDS011;17573;55.922;37.540;2022-08-03T07:16:05;12.07;;;4.38;;
30862;SDS011;17573;55.922;37.540;2022-08-03T07:18:44;6.20;;;3.63;;
30862;SDS011;17573;55.922;37.540;2022-08-03T07:21:30;4.72;;;3.42;;
30862;SDS011;17573;55.922;37.540;2022-08-03T07:24:09;14.05;;;3.92;;
30862;SDS011;17573;55.922;37.540;2022-08-03T07:26:55;14.48;;;3.67;;
30862;SDS011;17573;55.922;37.540;2022-08-03T07:29:34;9.77;;;3.70;;
30862;SDS011;17573;55.922;37.540;2022-08-03T07:32:20;7.68;;;3.20;;
30862;SDS011;17573;55.922;37.540;2022-08-03T07:34:59;8.57;;;3.65;;
30862;SDS011;17573;55.922;37.540;2022-08-03T07:37:45;6.22;;;4.00;;
30862;SDS011;17573;55.922;37.540;2022-08-03T07:40:24;16.30;;;3.85;;
30862;SDS011;17573;55.922;37.540;2022-08-03T07:43:10;9.80;;;3.53;;
30862;SDS011;17573;55.922;37.540;2022-08-03T07:45:49;26.80;;;4.60;;
30862;SDS011;17573;55.922;37.540;2022-08-03T07:48:35;13.68;;;4.68;;
30862;SDS011;17573;55.922;37.540;2022-08-03T07:51:14;21.30;;;4.50;;
30862;SDS011;17573;55.922;37.540;2022-08-03T07:54:00;8.77;;;3.30;;
30862;SDS011;17573;55.922;37.540;2022-08-03T07:56:39;14.85;;;3.45;;
30862;SDS011;17573;55.922;37.540;2022-08-03T07:59:25;5.30;;;3.00;;
30862;SDS011;17573;55.922;37.540;2022-08-03T08:02:05;12.55;;;4.13;;
30862;SDS011;17573;55.922;37.540;2022-08-03T08:04:51;9.38;;;3.63;;
30862;SDS011;17573;55.922;37.540;2022-08-03T08:07:30;12.70;;;3.58;;
30862;SDS011;17573;55.922;37.540;2022-08-03T08:10:16;9.10;;;3.10;;
30862;SDS011;17573;55.922;37.540;2022-08-03T08:12:56;7.10;;;3.30;;
30862;SDS011;17573;55.922;37.540;2022-08-03T08:15:41;9.75;;;3.15;;
30862;SDS011;17573;55.922;37.540;2022-08-03T08:18:20;4.85;;;2.60;;
30862;SDS011;17573;55.922;37.540;2022-08-03T08:21:09;8.83;;;2.77;;
30862;SDS011;17573;55.922;37.540;2022-08-03T08:23:48;6.10;;;2.80;;
30862;SDS011;17573;55.922;37.540;2022-08-03T08:26:34;11.23;;;2.42;;
30862;SDS011;17573;55.922;37.540;2022-08-03T08:29:13;9.65;;;3.08;;
30862;SDS011;17573;55.922;37.540;2022-08-03T08:32:00;7.13;;;2.75;;
30862;SDS011;17573;55.922;37.540;2022-08-03T08:34:39;9.13;;;3.10;;
30862;SDS011;17573;55.922;37.540;2022-08-03T08:37:25;11.38;;;2.97;;
30862;SDS011;17573;55.922;37.540;2022-08-03T08:40:05;7.97;;;3.42;;
30862;SDS011;17573;55.922;37.540;2022-08-03T08:42:51;13.00;;;3.70;;
30862;SDS011;17573;55.922;37.540;2022-08-03T08:45:30;8.07;;;3.38;;
30862;SDS011;17573;55.922;37.540;2022-08-03T08:48:21;8.55;;;3.35;;
30862;SDS011;17573;55.922;37.540;2022-08-03T08:51:02;10.63;;;3.65;;
30862;SDS011;17573;55.922;37.540;2022-08-03T08:53:50;7.18;;;2.67;;
30862;SDS011;17573;55.922;37.540;2022-08-03T08:56:30;8.50;;;3.17;;
30862;SDS011;17573;55.922;37.540;2022-08-03T08:59:16;10.45;;;3.42;;
30862;SDS011;17573;55.922;37.540;2022-08-03T09:01:56;12.82;;;2.97;;
30862;SDS011;17573;55.922;37.540;2022-08-03T09:04:42;6.95;;;2.90;;
30862;SDS011;17573;55.922;37.540;2022-08-03T09:07:22;12.23;;;3.20;;
30862;SDS011;17573;55.922;37.540;2022-08-03T09:10:09;9.50;;;2.50;;
30862;SDS011;17573;55.922;37.540;2022-08-03T09:12:50;14.75;;;3.60;;
30862;SDS011;17573;55.922;37.540;2022-08-03T09:15:36;11.10;;;3.97;;
30862;SDS011;17573;55.922;37.540;2022-08-03T09:18:27;10.23;;;2.80;;
30862;SDS011;17573;55.922;37.540;2022-08-03T09:21:23;7.53;;;2.47;;
30862;SDS011;17573;55.922;37.540;2022-08-03T09:24:04;3.50;;;2.63;;
30862;SDS011;17573;55.922;37.540;2022-08-03T09:26:50;10.43;;;3.25;;
30862;SDS011;17573;55.922;37.540;2022-08-03T09:29:31;5.25;;;2.90;;
30862;SDS011;17573;55.922;37.540;2022-08-03T09:32:21;9.18;;;3.45;;
30862;SDS011;17573;55.922;37.540;2022-08-03T09:35:03;15.80;;;3.85;;
30862;SDS011;17573;55.922;37.540;2022-08-03T09:37:55;11.98;;;3.55;;
30862;SDS011;17573;55.922;37.540;2022-08-03T09:40:46;10.05;;;3.30;;
30862;SDS011;17573;55.922;37.540;2022-08-03T09:43:40;8.93;;;3.78;;
30862;SDS011;17573;55.922;37.540;2022-08-03T09:46:23;5.85;;;3.60;;
30862;SDS011;17573;55.922;37.540;2022-08-03T09:49:11;10.43;;;3.33;;
30862;SDS011;17573;55.922;37.540;2022-08-03T09:51:51;10.95;;;3.38;;
30862;SDS011;17573;55.922;37.540;2022-08-03T09:54:37;12.48;;;3.45;;
30862;SDS011;17573;55.922;37.540;2022-08-03T09:57:20;6.82;;;3.20;;
30862;SDS011;17573;55.922;37.540;2022-08-03T10:00:10;12.07;;;3.78;;
30862;SDS011;17573;55.922;37.540;2022-08-03T10:02:50;11.18;;;3.45;;
30862;SDS011;17573;55.922;37.540;2022-08-03T10:05:48;16.77;;;3.42;;
30862;SDS011;17573;55.922;37.540;2022-08-03T10:08:28;9.45;;;3.65;;
30862;SDS011;17573;55.922;37.540;2022-08-03T10:11:28;8.25;;;3.40;;
30862;SDS011;17573;55.922;37.540;2022-08-03T10:14:09;10.40;;;3.53;;
30862;SDS011;17573;55.922;37.540;2022-08-03T10:16:58;8.32;;;3.60;;
30862;SDS011;17573;55.922;37.540;2022-08-03T10:19:38;4.78;;;3.65;;
30862;SDS011;17573;55.922;37.540;2022-08-03T10:22:42;6.75;;;3.50;;
30862;SDS011;17573;55.922;37.540;2022-08-03T10:25:21;13.35;;;3.05;;
30862;SDS011;17573;55.922;37.540;2022-08-03T10:28:10;16.00;;;3.90;;
30862;SDS011;17573;55.922;37.540;2022-08-03T10:30:52;14.60;;;3.17;;
30862;SDS011;17573;55.922;37.540;2022-08-03T10:33:43;7.70;;;3.60;;
30862;SDS011;17573;55.922;37.540;2022-08-03T10:39:12;12.48;;;3.67;;
30862;SDS011;17573;55.922;37.540;2022-08-03T10:41:52;10.18;;;3.92;;
30862;SDS011;17573;55.922;37.540;2022-08-03T10:44:39;11.35;;;3.33;;
30862;SDS011;17573;55.922;37.540;2022-08-03T10:47:20;7.65;;;3.38;;
30862;SDS011;17573;55.922;37.540;2022-08-03T10:50:05;8.05;;;4.10;;
30862;SDS011;17573;55.922;37.540;2022-08-03T10:53:04;7.45;;;3.90;;
30862;SDS011;17573;55.922;37.540;2022-08-03T10:55:53;8.35;;;3.60;;
30862;SDS011;17573;55.922;37.540;2022-08-03T10:58:51;11.73;;;3.72;;
30862;SDS011;17573;55.922;37.540;2022-08-03T11:01:51;10.40;;;3.92;;
30862;SDS011;17573;55.922;37.540;2022-08-03T11:04:31;8.45;;;4.03;;
30862;SDS011;17573;55.922;37.540;2022-08-03T11:07:23;10.45;;;4.03;;
30862;SDS011;17573;55.922;37.540;2022-08-03T11:10:02;10.15;;;4.25;;
30862;SDS011;17573;55.922;37.540;2022-08-03T11:12:48;15.05;;;4.97;;
30862;SDS011;17573;55.922;37.540;2022-08-03T11:15:31;7.95;;;5.63;;
30862;SDS011;17573;55.922;37.540;2022-08-03T11:18:17;8.55;;;3.90;;
30862;SDS011;17573;55.922;37.540;2022-08-03T11:20:59;8.57;;;4.47;;
30862;SDS011;17573;55.922;37.540;2022-08-03T11:23:46;9.30;;;4.75;;
30862;SDS011;17573;55.922;37.540;2022-08-03T11:26:26;13.20;;;4.32;;
30862;SDS011;17573;55.922;37.540;2022-08-03T11:29:26;8.38;;;3.70;;
30862;SDS011;17573;55.922;37.540;2022-08-03T11:32:06;8.45;;;3.78;;
30862;SDS011;17573;55.922;37.540;2022-08-03T11:40:47;29.75;;;4.68;;
30862;SDS011;17573;55.922;37.540;2022-08-03T11:46:21;15.38;;;3.97;;
30862;SDS011;17573;55.922;37.540;2022-08-03T11:49:04;10.85;;;4.13;;
30862;SDS011;17573;55.922;37.540;2022-08-03T11:51:53;14.32;;;4.75;;
30862;SDS011;17573;55.922;37.540;2022-08-03T11:54:32;6.28;;;3.95;;
30862;SDS011;17573;55.922;37.540;2022-08-03T11:57:31;6.78;;;4.18;;
30862;SDS011;17573;55.922;37.540;2022-08-03T12:00:25;7.93;;;3.90;;
30862;SDS011;17573;55.922;37.540;2022-08-03T12:03:13;11.55;;;3.42;;
30862;SDS011;17573;55.922;37.540;2022-08-03T12:05:54;20.83;;;4.32;;
30862;SDS011;17573;55.922;37.540;2022-08-03T12:08:42;7.50;;;3.75;;
30862;SDS011;17573;55.922;37.540;2022-08-03T12:11:22;9.98;;;4.25;;
30862;SDS011;17573;55.922;37.540;2022-08-03T12:14:07;13.05;;;4.50;;
30862;SDS011;17573;55.922;37.540;2022-08-03T12:16:54;8.88;;;3.70;;
30862;SDS011;17573;55.922;37.540;2022-08-03T12:19:41;7.10;;;4.07;;
30862;SDS011;17573;55.922;37.540;2022-08-03T12:22:33;13.25;;;6.68;;
30862;SDS011;17573;55.922;37.540;2022-08-03T12:25:21;21.48;;;6.75;;
30862;SDS011;17573;55.922;37.540;2022-08-03T12:28:15;7.88;;;3.78;;
30862;SDS011;17573;55.922;37.540;2022-08-03T12:31:04;6.97;;;4.22;;
30862;SDS011;17573;55.922;37.540;2022-08-03T12:36:50;6.97;;;3.78;;
30862;SDS011;17573;55.922;37.540;2022-08-03T12:39:32;10.30;;;3.50;;
30862;SDS011;17573;55.922;37.540;2022-08-03T12:42:18;19.92;;;8.35;;
30862;SDS011;17573;55.922;37.540;2022-08-03T12:44:58;13.70;;;6.53;;
30862;SDS011;17573;55.922;37.540;2022-08-03T12:47:52;6.50;;;3.75;;
30862;SDS011;17573;55.922;37.540;2022-08-03T12:50:32;13.30;;;4.53;;
30862;SDS011;17573;55.922;37.540;2022-08-03T12:53:28;15.13;;;9.95;;
30862;SDS011;17573;55.922;37.540;2022-08-03T12:56:01;11.03;;;4.20;;
30862;SDS011;17573;55.922;37.540;2022-08-03T12:58:55;18.50;;;13.80;;
30862;SDS011;17573;55.922;37.540;2022-08-03T13:01:35;28.38;;;16.73;;
30862;SDS011;17573;55.922;37.540;2022-08-03T13:04:29;12.07;;;4.28;;
30862;SDS011;17573;55.922;37.540;2022-08-03T13:07:05;13.52;;;3.80;;
30862;SDS011;17573;55.922;37.540;2022-08-03T13:09:59;11.77;;;4.25;;
30862;SDS011;17573;55.922;37.540;2022-08-03T13:12:32;10.27;;;3.90;;
30862;SDS011;17573;55.922;37.540;2022-08-03T13:15:25;6.80;;;4.15;;
30862;SDS011;17573;55.922;37.540;2022-08-03T13:18:02;5.80;;;3.38;;
30862;SDS011;17573;55.922;37.540;2022-08-03T13:20:54;6.43;;;4.15;;
30862;SDS011;17573;55.922;37.540;2022-08-03T13:23:27;9.85;;;4.53;;
30862;SDS011;17573;55.922;37.540;2022-08-03T13:26:20;13.35;;;4.45;;
30862;SDS011;17573;55.922;37.540;2022-08-03T13:28:53;7.18;;;3.72;;
30862;SDS011;17573;55.922;37.540;2022-08-03T13:31:45;7.43;;;3.97;;
30862;SDS011;17573;55.922;37.540;2022-08-03T13:34:18;16.92;;;5.05;;
30862;SDS011;17573;55.922;37.540;2022-08-03T13:37:11;12.80;;;4.75;;
30862;SDS011;17573;55.922;37.540;2022-08-03T13:39:44;17.45;;;4.50;;
30862;SDS011;17573;55.922;37.540;2022-08-03T13:42:36;17.17;;;5.30;;
30862;SDS011;17573;55.922;37.540;2022-08-03T13:45:09;6.60;;;4.53;;
30862;SDS011;17573;55.922;37.540;2022-08-03T13:48:01;13.27;;;5.90;;
30862;SDS011;17573;55.922;37.540;2022-08-03T13:50:34;17.80;;;5.63;;
30862;SDS011;17573;55.922;37.540;2022-08-03T13:53:26;14.02;;;4.43;;
30862;SDS011;17573;55.922;37.540;2022-08-03T13:55:59;11.50;;;4.28;;
30862;SDS011;17573;55.922;37.540;2022-08-03T13:58:52;9.95;;;4.75;;
30862;SDS011;17573;55.922;37.540;2022-08-03T14:01:25;9.40;;;3.95;;
30862;SDS011;17573;55.922;37.540;2022-08-03T14:04:18;8.88;;;3.78;;
30862;SDS011;17573;55.922;37.540;2022-08-03T14:06:52;16.52;;;4.63;;
30862;SDS011;17573;55.922;37.540;2022-08-03T14:09:44;7.45;;;4.18;;
30862;SDS011;17573;55.922;37.540;2022-08-03T14:12:17;14.90;;;4.43;;
30862;SDS011;17573;55.922;37.540;2022-08-03T14:15:09;11.38;;;4.03;;
30862;SDS011;17573;55.922;37.540;2022-08-03T14:17:44;16.85;;;4.32;;
30862;SDS011;17573;55.922;37.540;2022-08-03T14:20:36;19.17;;;4.97;;
30862;SDS011;17573;55.922;37.540;2022-08-03T14:23:09;11.02;;;5.05;;
30862;SDS011;17573;55.922;37.540;2022-08-03T14:26:02;7.85;;;4.60;;
30862;SDS011;17573;55.922;37.540;2022-08-03T14:28:36;12.35;;;3.75;;
30862;SDS011;17573;55.922;37.540;2022-08-03T14:31:28;7.70;;;3.53;;
30862;SDS011;17573;55.922;37.540;2022-08-03T14:34:01;12.02;;;4.47;;
30862;SDS011;17573;55.922;37.540;2022-08-03T14:36:53;13.65;;;4.38;;
30862;SDS011;17573;55.922;37.540;2022-08-03T14:39:26;20.52;;;7.50;;
30862;SDS011;17573;55.922;37.540;2022-08-03T14:42:18;13.43;;;4.70;;
30862;SDS011;17573;55.922;37.540;2022-08-03T14:44:51;9.80;;;4.78;;
30862;SDS011;17573;55.922;37.540;2022-08-03T14:47:43;17.90;;;5.25;;
30862;SDS011;17573;55.922;37.540;2022-08-03T14:50:16;20.77;;;6.90;;
30862;SDS011;17573;55.922;37.540;2022-08-03T14:53:08;14.45;;;5.10;;
30862;SDS011;17573;55.922;37.540;2022-08-03T14:55:41;6.88;;;4.47;;
30862;SDS011;17573;55.922;37.540;2022-08-03T14:58:33;40.15;;;16.80;;
30862;SDS011;17573;55.922;37.540;2022-08-03T15:01:06;12.90;;;4.47;;
30862;SDS011;17573;55.922;37.540;2022-08-03T15:03:58;8.02;;;4.53;;
30862;SDS011;17573;55.922;37.540;2022-08-03T15:06:31;24.88;;;14.07;;
30862;SDS011;17573;55.922;37.540;2022-08-03T15:09:23;9.25;;;3.83;;
30862;SDS011;17573;55.922;37.540;2022-08-03T15:11:56;19.70;;;6.30;;
30862;SDS011;17573;55.922;37.540;2022-08-03T15:14:57;9.32;;;5.10;;
30862;SDS011;17573;55.922;37.540;2022-08-03T15:17:30;12.77;;;5.50;;
30862;SDS011;17573;55.922;37.540;2022-08-03T15:20:22;16.73;;;5.25;;
30862;SDS011;17573;55.922;37.540;2022-08-03T15:22:55;16.75;;;5.80;;
30862;SDS011;17573;55.922;37.540;2022-08-03T15:25:47;20.60;;;6.43;;
30862;SDS011;17573;55.922;37.540;2022-08-03T15:28:20;9.63;;;4.80;;
30862;SDS011;17573;55.922;37.540;2022-08-03T15:31:12;12.13;;;4.80;;
30862;SDS011;17573;55.922;37.540;2022-08-03T15:33:45;30.10;;;4.63;;
30862;SDS011;17573;55.922;37.540;2022-08-03T15:36:37;8.75;;;4.20;;
30862;SDS011;17573;55.922;37.540;2022-08-03T15:39:10;13.75;;;4.10;;
30862;SDS011;17573;55.922;37.540;2022-08-03T15:42:02;9.88;;;5.03;;
30862;SDS011;17573;55.922;37.540;2022-08-03T15:44:35;13.32;;;4.25;;
30862;SDS011;17573;55.922;37.540;2022-08-03T15:47:28;15.13;;;5.00;;
30862;SDS011;17573;55.922;37.540;2022-08-03T15:50:00;9.20;;;4.03;;
30862;SDS011;17573;55.922;37.540;2022-08-03T15:52:54;7.45;;;3.22;;
30862;SDS011;17573;55.922;37.540;2022-08-03T15:55:27;14.23;;;4.38;;
30862;SDS011;17573;55.922;37.540;2022-08-03T15:58:20;13.35;;;4.15;;
30862;SDS011;17573;55.922;37.540;2022-08-03T16:00:52;11.15;;;4.13;;
30862;SDS011;17573;55.922;37.540;2022-08-03T16:03:44;7.90;;;4.03;;
30862;SDS011;17573;55.922;37.540;2022-08-03T16:06:24;15.52;;;6.43;;
30862;SDS011;17573;55.922;37.540;2022-08-03T16:09:17;6.53;;;4.38;;
30862;SDS011;17573;55.922;37.540;2022-08-03T16:11:50;17.80;;;5.55;;
30862;SDS011;17573;55.922;37.540;2022-08-03T16:14:43;14.23;;;5.68;;
30862;SDS011;17573;55.922;37.540;2022-08-03T16:17:16;16.25;;;5.75;;
30862;SDS011;17573;55.922;37.540;2022-08-03T16:20:09;33.28;;;7.38;;
30862;SDS011;17573;55.922;37.540;2022-08-03T16:22:46;21.83;;;6.70;;
30862;SDS011;17573;55.922;37.540;2022-08-03T16:25:40;26.35;;;5.82;;
30862;SDS011;17573;55.922;37.540;2022-08-03T16:28:13;40.95;;;5.88;;